sensor_id;sensor_type;location;lat;lon;timestamp;pressure;altitude;pressure_sealevel;temperature;humidity
5574;BME280;2563;52.242;7.956;2022-10-16T00:01:10;99740.38;;;11.99;100.00
5574;BME280;2563;52.242;7.956;2022-10-16T00:03:38;99743.28;;;11.91;100.00
5574;BME280;2563;52.242;7.956;2022-10-16T00:06:04;99744.91;;;11.94;100.00
5574;BME280;2563;52.242;7.956;2022-10-16T00:08:30;99745.44;;;11.80;100.00
5574;BME280;2563;52.242;7.956;2022-10-16T00:11:04;99742.13;;;11.78;100.00
5574;BME280;2563;52.242;7.956;2022-10-16T00:13:30;99745.53;;;11.79;100.00
5574;BME280;2563;52.242;7.956;2022-10-16T00:15:56;99745.34;;;11.83;100.00
5574;BME280;2563;52.242;7.956;2022-10-16T00:18:23;99743.09;;;11.76;100.00
5574;BME280;2563;52.242;7.956;2022-10-16T00:20:49;99751.56;;;11.78;100.00
5574;BME280;2563;52.242;7.956;2022-10-16T00:23:14;99750.81;;;11.76;100.00
5574;BME280;2563;52.242;7.956;2022-10-16T00:25:40;99758.28;;;11.82;100.00
5574;BME280;2563;52.242;7.956;2022-10-16T00:28:05;99760.91;;;11.80;100.00
5574;BME280;2563;52.242;7.956;2022-10-16T00:30:30;99756.81;;;11.76;100.00
5574;BME280;2563;52.242;7.956;2022-10-16T00:32:56;99751.56;;;11.78;100.00
5574;BME280;2563;52.242;7.956;2022-10-16T00:35:21;99756.38;;;11.87;100.00
5574;BME280;2563;52.242;7.956;2022-10-16T00:37:47;99765.13;;;11.83;100.00
5574;BME280;2563;52.242;7.956;2022-10-16T00:40:12;99767.63;;;11.84;100.00
5574;BME280;2563;52.242;7.956;2022-10-16T00:42:38;99773.13;;;11.77;100.00
5574;BME280;2563;52.242;7.956;2022-10-16T00:45:04;99786.00;;;11.77;100.00
5574;BME280;2563;52.242;7.956;2022-10-16T00:47:36;99787.09;;;11.93;100.00
5574;BME280;2563;52.242;7.956;2022-10-16T00:50:13;99790.78;;;11.86;100.00
5574;BME280;2563;52.242;7.956;2022-10-16T00:52:44;99798.47;;;11.87;100.00
5574;BME280;2563;52.242;7.956;2022-10-16T00:55:10;99798.91;;;11.77;100.00
5574;BME280;2563;52.242;7.956;2022-10-16T00:57:37;99812.81;;;11.73;100.00
5574;BME280;2563;52.242;7.956;2022-10-16T01:00:09;99815.16;;;11.79;100.00
5574;BME280;2563;52.242;7.956;2022-10-16T01:02:35;99824.31;;;11.86;100.00
5574;BME280;2563;52.242;7.956;2022-10-16T01:05:01;99820.13;;;11.83;100.00
5574;BME280;2563;52.242;7.956;2022-10-16T01:08:21;99830.53;;;11.80;100.00
5574;BME280;2563;52.242;7.956;2022-10-16T01:10:38;99830.00;;;11.94;100.00
5574;BME280;2563;52.242;7.956;2022-10-16T01:18:55;99878.69;;;11.80;100.00
5574;BME280;2563;52.242;7.956;2022-10-16T01:21:25;99896.56;;;11.84;100.00
5574;BME280;2563;52.242;7.956;2022-10-16T01:24:17;99913.78;;;11.84;100.00
5574;BME280;2563;52.242;7.956;2022-10-16T01:29:45;99939.97;;;11.73;100.00
5574;BME280;2563;52.242;7.956;2022-10-16T01:38:10;99977.00;;;11.70;100.00
5574;BME280;2563;52.242;7.956;2022-10-16T01:40:39;99986.66;;;11.89;100.00
5574;BME280;2563;52.242;7.956;2022-10-16T01:43:23;99989.19;;;11.90;100.00
5574;BME280;2563;52.242;7.956;2022-10-16T01:45:51;99997.94;;;11.85;100.00
5574;BME280;2563;52.242;7.956;2022-10-16T01:48:18;100005.69;;;11.85;100.00
5574;BME280;2563;52.242;7.956;2022-10-16T01:50:52;100009.53;;;11.75;100.00
5574;BME280;2563;52.242;7.956;2022-10-16T01:53:20;100019.31;;;11.90;100.00
5574;BME280;2563;52.242;7.956;2022-10-16T01:55:48;100031.28;;;11.91;100.00
5574;BME280;2563;52.242;7.956;2022-10-16T01:58:14;100038.13;;;11.92;100.00
5574;BME280;2563;52.242;7.956;2022-10-16T02:00:43;100048.56;;;11.89;100.00
5574;BME280;2563;52.242;7.956;2022-10-16T02:03:11;100051.91;;;11.91;100.00
5574;BME280;2563;52.242;7.956;2022-10-16T02:08:08;100054.53;;;11.89;100.00
5574;BME280;2563;52.242;7.956;2022-10-16T02:10:35;100058.75;;;11.92;100.00
5574;BME280;2563;52.242;7.956;2022-10-16T02:13:09;100065.81;;;11.87;100.00
5574;BME280;2563;52.242;7.956;2022-10-16T02:15:35;100079.38;;;11.92;100.00
5574;BME280;2563;52.242;7.956;2022-10-16T02:18:02;100080.75;;;12.02;100.00
5574;BME280;2563;52.242;7.956;2022-10-16T02:20:32;100083.31;;;12.02;100.00
5574;BME280;2563;52.242;7.956;2022-10-16T02:23:00;100093.13;;;11.93;100.00
5574;BME280;2563;52.242;7.956;2022-10-16T02:25:33;100102.00;;;11.84;100.00
5574;BME280;2563;52.242;7.956;2022-10-16T02:28:24;100109.56;;;11.90;100.00
5574;BME280;2563;52.242;7.956;2022-10-16T02:30:58;100108.63;;;11.93;100.00
5574;BME280;2563;52.242;7.956;2022-10-16T02:33:27;100105.78;;;11.99;100.00
5574;BME280;2563;52.242;7.956;2022-10-16T02:35:54;100118.06;;;11.92;100.00
5574;BME280;2563;52.242;7.956;2022-10-16T02:38:21;100116.41;;;11.91;100.00
5574;BME280;2563;52.242;7.956;2022-10-16T02:40:47;100119.25;;;12.07;100.00
5574;BME280;2563;52.242;7.956;2022-10-16T02:43:13;100124.59;;;12.02;100.00
5574;BME280;2563;52.242;7.956;2022-10-16T02:45:39;100130.53;;;12.04;100.00
5574;BME280;2563;52.242;7.956;2022-10-16T02:48:04;100121.25;;;11.99;100.00
5574;BME280;2563;52.242;7.956;2022-10-16T02:50:30;100131.09;;;11.89;100.00
5574;BME280;2563;52.242;7.956;2022-10-16T02:52:55;100129.13;;;11.96;100.00
5574;BME280;2563;52.242;7.956;2022-10-16T02:55:21;100130.28;;;12.10;100.00
5574;BME280;2563;52.242;7.956;2022-10-16T02:57:46;100142.66;;;12.02;100.00
5574;BME280;2563;52.242;7.956;2022-10-16T03:00:15;100145.06;;;12.07;100.00
5574;BME280;2563;52.242;7.956;2022-10-16T03:02:41;100151.06;;;12.07;100.00
5574;BME280;2563;52.242;7.956;2022-10-16T03:05:08;100149.13;;;12.12;100.00
5574;BME280;2563;52.242;7.956;2022-10-16T03:07:34;100151.72;;;12.12;100.00
5574;BME280;2563;52.242;7.956;2022-10-16T03:10:03;100159.25;;;11.95;100.00
5574;BME280;2563;52.242;7.956;2022-10-16T03:12:29;100151.38;;;11.98;100.00
5574;BME280;2563;52.242;7.956;2022-10-16T03:14:56;100166.84;;;11.98;100.00
5574;BME280;2563;52.242;7.956;2022-10-16T03:17:22;100176.91;;;12.06;100.00
5574;BME280;2563;52.242;7.956;2022-10-16T03:19:48;100161.03;;;12.17;100.00
5574;BME280;2563;52.242;7.956;2022-10-16T03:22:13;100161.13;;;12.13;100.00
5574;BME280;2563;52.242;7.956;2022-10-16T03:24:38;100169.09;;;12.07;100.00
5574;BME280;2563;52.242;7.956;2022-10-16T03:27:04;100151.88;;;12.31;100.00
5574;BME280;2563;52.242;7.956;2022-10-16T03:29:29;100157.47;;;12.43;100.00
5574;BME280;2563;52.242;7.956;2022-10-16T03:31:56;100159.53;;;12.33;100.00
5574;BME280;2563;52.242;7.956;2022-10-16T03:34:21;100176.06;;;12.29;100.00
5574;BME280;2563;52.242;7.956;2022-10-16T03:36:47;100167.66;;;12.24;100.00
5574;BME280;2563;52.242;7.956;2022-10-16T03:39:12;100177.22;;;12.20;100.00
5574;BME280;2563;52.242;7.956;2022-10-16T03:41:38;100181.69;;;12.17;100.00
5574;BME280;2563;52.242;7.956;2022-10-16T03:44:03;100181.56;;;12.20;100.00
5574;BME280;2563;52.242;7.956;2022-10-16T03:46:28;100169.44;;;12.22;100.00
5574;BME280;2563;52.242;7.956;2022-10-16T03:48:54;100159.41;;;12.14;100.00
5574;BME280;2563;52.242;7.956;2022-10-16T03:51:20;100140.88;;;12.26;100.00
5574;BME280;2563;52.242;7.956;2022-10-16T03:53:45;100143.34;;;12.29;100.00
5574;BME280;2563;52.242;7.956;2022-10-16T03:56:10;100141.72;;;12.27;100.00
5574;BME280;2563;52.242;7.956;2022-10-16T03:58:35;100143.38;;;12.28;100.00
5574;BME280;2563;52.242;7.956;2022-10-16T04:01:01;100129.00;;;12.22;100.00
5574;BME280;2563;52.242;7.956;2022-10-16T04:03:26;100122.91;;;12.23;100.00
5574;BME280;2563;52.242;7.956;2022-10-16T04:05:52;100130.91;;;12.17;100.00
5574;BME280;2563;52.242;7.956;2022-10-16T04:08:17;100133.31;;;12.22;100.00
5574;BME280;2563;52.242;7.956;2022-10-16T04:10:43;100135.25;;;12.17;100.00
5574;BME280;2563;52.242;7.956;2022-10-16T04:13:09;100127.75;;;12.09;100.00
5574;BME280;2563;52.242;7.956;2022-10-16T04:15:34;100133.78;;;12.09;100.00
5574;BME280;2563;52.242;7.956;2022-10-16T04:17:59;100129.34;;;12.13;100.00
5574;BME280;2563;52.242;7.956;2022-10-16T04:20:25;100128.44;;;12.14;100.00
5574;BME280;2563;52.242;7.956;2022-10-16T04:22:50;100128.50;;;12.12;100.00
5574;BME280;2563;52.242;7.956;2022-10-16T04:25:15;100136.78;;;12.21;100.00
5574;BME280;2563;52.242;7.956;2022-10-16T04:27:41;100140.47;;;12.13;100.00
5574;BME280;2563;52.242;7.956;2022-10-16T04:30:06;100153.56;;;12.09;100.00
5574;BME280;2563;52.242;7.956;2022-10-16T04:32:32;100143.19;;;12.10;100.00
5574;BME280;2563;52.242;7.956;2022-10-16T04:34:57;100151.72;;;12.12;100.00
5574;BME280;2563;52.242;7.956;2022-10-16T04:37:24;100153.63;;;12.07;100.00
5574;BME280;2563;52.242;7.956;2022-10-16T04:39:50;100156.91;;;12.11;100.00
5574;BME280;2563;52.242;7.956;2022-10-16T04:42:15;100152.72;;;12.08;100.00
5574;BME280;2563;52.242;7.956;2022-10-16T04:44:41;100150.94;;;12.10;100.00
5574;BME280;2563;52.242;7.956;2022-10-16T04:47:06;100149.13;;;12.12;100.00
5574;BME280;2563;52.242;7.956;2022-10-16T04:49:31;100159.34;;;12.16;100.00
5574;BME280;2563;52.242;7.956;2022-10-16T04:51:57;100161.91;;;12.16;100.00
5574;BME280;2563;52.242;7.956;2022-10-16T04:54:22;100162.94;;;12.11;100.00
5574;BME280;2563;52.242;7.956;2022-10-16T04:56:47;100160.38;;;12.11;100.00
5574;BME280;2563;52.242;7.956;2022-10-16T04:59:15;100162.94;;;12.11;100.00
5574;BME280;2563;52.242;7.956;2022-10-16T05:01:40;100162.03;;;12.12;100.00
5574;BME280;2563;52.242;7.956;2022-10-16T05:04:05;100165.28;;;12.18;100.00
5574;BME280;2563;52.242;7.956;2022-10-16T05:06:31;100157.31;;;12.24;100.00
5574;BME280;2563;52.242;7.956;2022-10-16T05:08:56;100165.34;;;12.16;100.00
5574;BME280;2563;52.242;7.956;2022-10-16T05:11:21;100157.31;;;12.24;100.00
5574;BME280;2563;52.242;7.956;2022-10-16T05:13:47;100155.63;;;12.23;100.00
5574;BME280;2563;52.242;7.956;2022-10-16T05:16:12;100153.22;;;12.18;100.00
5574;BME280;2563;52.242;7.956;2022-10-16T05:18:37;100155.97;;;12.13;100.00
5574;BME280;2563;52.242;7.956;2022-10-16T05:21:03;100155.63;;;12.23;100.00
5574;BME280;2563;52.242;7.956;2022-10-16T05:23:28;100153.72;;;12.28;100.00
5574;BME280;2563;52.242;7.956;2022-10-16T05:25:55;100155.88;;;12.17;100.00
5574;BME280;2563;52.242;7.956;2022-10-16T05:28:26;100145.81;;;12.09;100.00
5574;BME280;2563;52.242;7.956;2022-10-16T05:30:53;100160.06;;;12.19;100.00
5574;BME280;2563;52.242;7.956;2022-10-16T05:33:24;100152.16;;;12.24;100.00
5574;BME280;2563;52.242;7.956;2022-10-16T05:35:50;100165.13;;;12.22;100.00
5574;BME280;2563;52.242;7.956;2022-10-16T05:38:17;100166.97;;;12.19;100.00
5574;BME280;2563;52.242;7.956;2022-10-16T05:40:42;100152.38;;;12.18;100.00
5574;BME280;2563;52.242;7.956;2022-10-16T05:43:08;100167.75;;;12.21;100.00
5574;BME280;2563;52.242;7.956;2022-10-16T05:45:33;100170.28;;;12.22;100.00
5574;BME280;2563;52.242;7.956;2022-10-16T05:47:59;100161.75;;;12.20;100.00
5574;BME280;2563;52.242;7.956;2022-10-16T05:50:25;100160.91;;;12.20;100.00
5574;BME280;2563;52.242;7.956;2022-10-16T05:52:50;100160.28;;;12.13;100.00
5574;BME280;2563;52.242;7.956;2022-10-16T05:55:16;100164.63;;;12.12;100.00
5574;BME280;2563;52.242;7.956;2022-10-16T05:57:41;100171.22;;;12.20;100.00
5574;BME280;2563;52.242;7.956;2022-10-16T06:00:07;100165.13;;;12.22;100.00
5574;BME280;2563;52.242;7.956;2022-10-16T06:02:33;100171.13;;;12.23;100.00
5574;BME280;2563;52.242;7.956;2022-10-16T06:04:58;100169.56;;;12.19;100.00
5574;BME280;2563;52.242;7.956;2022-10-16T06:07:23;100168.00;;;12.15;100.00
5574;BME280;2563;52.242;7.956;2022-10-16T06:09:52;100180.31;;;12.06;100.00
5574;BME280;2563;52.242;7.956;2022-10-16T06:12:18;100176.72;;;12.10;100.00
5574;BME280;2563;52.242;7.956;2022-10-16T06:14:45;100187.03;;;12.10;100.00
5574;BME280;2563;52.242;7.956;2022-10-16T06:17:12;100183.75;;;12.07;100.00
5574;BME280;2563;52.242;7.956;2022-10-16T06:19:38;100181.34;;;12.02;100.00
5574;BME280;2563;52.242;7.956;2022-10-16T06:22:04;100190.53;;;12.09;100.00
5574;BME280;2563;52.242;7.956;2022-10-16T06:24:29;100190.03;;;12.00;100.00
5574;BME280;2563;52.242;7.956;2022-10-16T06:26:54;100200.19;;;12.04;100.00
5574;BME280;2563;52.242;7.956;2022-10-16T06:29:20;100204.44;;;12.05;100.00
5574;BME280;2563;52.242;7.956;2022-10-16T06:31:45;100197.69;;;12.01;100.00
5574;BME280;2563;52.242;7.956;2022-10-16T06:34:10;100204.47;;;12.04;100.00
5574;BME280;2563;52.242;7.956;2022-10-16T06:36:37;100211.19;;;12.09;100.00
5574;BME280;2563;52.242;7.956;2022-10-16T06:39:03;100214.19;;;12.21;100.00
5574;BME280;2563;52.242;7.956;2022-10-16T06:41:29;100217.50;;;12.24;100.00
5574;BME280;2563;52.242;7.956;2022-10-16T06:43:54;100220.09;;;12.24;100.00
5574;BME280;2563;52.242;7.956;2022-10-16T06:46:22;100230.34;;;12.26;100.00
5574;BME280;2563;52.242;7.956;2022-10-16T06:48:47;100232.72;;;12.32;100.00
5574;BME280;2563;52.242;7.956;2022-10-16T06:51:18;100243.00;;;12.33;100.00
5574;BME280;2563;52.242;7.956;2022-10-16T06:53:49;100249.97;;;12.30;100.00
5574;BME280;2563;52.242;7.956;2022-10-16T06:56:17;100249.94;;;12.31;100.00
5574;BME280;2563;52.242;7.956;2022-10-16T06:58:43;100256.06;;;12.29;100.00
5574;BME280;2563;52.242;7.956;2022-10-16T07:01:10;100262.06;;;12.29;100.00
5574;BME280;2563;52.242;7.956;2022-10-16T07:03:37;100271.59;;;12.27;100.00
5574;BME280;2563;52.242;7.956;2022-10-16T07:06:04;100274.03;;;12.30;100.00
5574;BME280;2563;52.242;7.956;2022-10-16T07:08:31;100279.31;;;12.27;100.00
5574;BME280;2563;52.242;7.956;2022-10-16T07:10:59;100294.66;;;12.32;100.00
5574;BME280;2563;52.242;7.956;2022-10-16T07:13:25;100300.59;;;12.34;100.00
5574;BME280;2563;52.242;7.956;2022-10-16T07:15:50;100303.22;;;12.32;100.00
5574;BME280;2563;52.242;7.956;2022-10-16T07:18:15;100308.66;;;12.25;100.00
5574;BME280;2563;52.242;7.956;2022-10-16T07:20:41;100318.88;;;12.28;100.00
5574;BME280;2563;52.242;7.956;2022-10-16T07:23:06;100324.72;;;12.33;100.00
5574;BME280;2563;52.242;7.956;2022-10-16T07:25:31;100329.19;;;12.28;100.00
5574;BME280;2563;52.242;7.956;2022-10-16T07:27:57;100336.13;;;12.26;100.00
5574;BME280;2563;52.242;7.956;2022-10-16T07:30:22;100344.78;;;12.25;100.00
5574;BME280;2563;52.242;7.956;2022-10-16T07:32:48;100341.41;;;12.23;100.00
5574;BME280;2563;52.242;7.956;2022-10-16T07:35:13;100340.38;;;12.28;100.00
5574;BME280;2563;52.242;7.956;2022-10-16T07:37:38;100347.78;;;12.38;100.00
5574;BME280;2563;52.242;7.956;2022-10-16T07:40:04;100357.06;;;12.43;100.00
5574;BME280;2563;52.242;7.956;2022-10-16T07:42:30;100362.00;;;12.49;100.00
5574;BME280;2563;52.242;7.956;2022-10-16T07:44:55;100365.38;;;12.51;100.00
5574;BME280;2563;52.242;7.956;2022-10-16T07:47:20;100368.72;;;12.55;100.00
5574;BME280;2563;52.242;7.956;2022-10-16T07:49:46;100368.44;;;12.63;100.00
5574;BME280;2563;52.242;7.956;2022-10-16T07:52:12;100369.66;;;12.76;100.00
5574;BME280;2563;52.242;7.956;2022-10-16T07:54:38;100361.69;;;12.82;100.00
5574;BME280;2563;52.242;7.956;2022-10-16T07:57:04;100357.19;;;12.87;100.00
5574;BME280;2563;52.242;7.956;2022-10-16T07:59:29;100356.06;;;12.94;100.00
5574;BME280;2563;52.242;7.956;2022-10-16T08:02:04;100347.31;;;12.98;100.00
5574;BME280;2563;52.242;7.956;2022-10-16T08:04:46;100349.56;;;13.08;100.00
5574;BME280;2563;52.242;7.956;2022-10-16T08:07:14;100336.28;;;13.17;100.00
5574;BME280;2563;52.242;7.956;2022-10-16T08:09:41;100337.16;;;13.39;100.00
5574;BME280;2563;52.242;7.956;2022-10-16T08:12:07;100324.91;;;13.45;100.00
5574;BME280;2563;52.242;7.956;2022-10-16T08:14:32;100333.59;;;13.64;100.00
5574;BME280;2563;52.242;7.956;2022-10-16T08:16:58;100326.38;;;13.72;100.00
5574;BME280;2563;52.242;7.956;2022-10-16T08:19:23;100329.16;;;13.88;100.00
5574;BME280;2563;52.242;7.956;2022-10-16T08:21:48;100313.41;;;13.94;100.00
5574;BME280;2563;52.242;7.956;2022-10-16T08:24:14;100321.84;;;13.98;100.00
5574;BME280;2563;52.242;7.956;2022-10-16T08:26:39;100310.22;;;14.08;100.00
5574;BME280;2563;52.242;7.956;2022-10-16T08:29:04;100308.75;;;14.42;100.00
5574;BME280;2563;52.242;7.956;2022-10-16T08:31:58;100294.63;;;14.49;100.00
5574;BME280;2563;52.242;7.956;2022-10-16T08:37:37;100255.88;;;14.85;100.00
5574;BME280;2563;52.242;7.956;2022-10-16T08:40:07;100252.22;;;15.26;100.00
5574;BME280;2563;52.242;7.956;2022-10-16T08:46:11;100203.28;;;15.72;100.00
5574;BME280;2563;52.242;7.956;2022-10-16T08:51:41;100127.06;;;15.90;100.00
5574;BME280;2563;52.242;7.956;2022-10-16T08:54:22;100106.47;;;16.03;100.00
5574;BME280;2563;52.242;7.956;2022-10-16T08:56:54;100107.06;;;16.24;100.00
5574;BME280;2563;52.242;7.956;2022-10-16T08:59:20;100095.59;;;16.28;100.00
5574;BME280;2563;52.242;7.956;2022-10-16T09:01:47;100099.28;;;16.40;100.00
5574;BME280;2563;52.242;7.956;2022-10-16T09:07:12;100080.19;;;16.71;100.00
5574;BME280;2563;52.242;7.956;2022-10-16T09:09:56;100080.91;;;16.89;100.00
5574;BME280;2563;52.242;7.956;2022-10-16T09:12:46;100081.78;;;17.04;100.00
5574;BME280;2563;52.242;7.956;2022-10-16T09:15:29;100086.91;;;17.20;100.00
5574;BME280;2563;52.242;7.956;2022-10-16T09:20:52;100097.81;;;17.55;100.00
5574;BME280;2563;52.242;7.956;2022-10-16T09:23:34;100117.16;;;17.65;100.00
5574;BME280;2563;52.242;7.956;2022-10-16T09:26:01;100120.78;;;17.77;100.00
5574;BME280;2563;52.242;7.956;2022-10-16T09:28:27;100139.38;;;17.85;100.00
5574;BME280;2563;52.242;7.956;2022-10-16T09:30:53;100160.09;;;17.73;100.00
5574;BME280;2563;52.242;7.956;2022-10-16T09:33:21;100167.00;;;17.88;100.00
5574;BME280;2563;52.242;7.956;2022-10-16T09:35:53;100183.56;;;18.16;100.00
5574;BME280;2563;52.242;7.956;2022-10-16T09:38:25;100211.47;;;18.28;100.00
5574;BME280;2563;52.242;7.956;2022-10-16T09:40:52;100231.56;;;18.26;100.00
5574;BME280;2563;52.242;7.956;2022-10-16T09:48:43;100303.38;;;18.59;100.00
5574;BME280;2563;52.242;7.956;2022-10-16T09:51:25;100327.69;;;18.88;100.00
5574;BME280;2563;52.242;7.956;2022-10-16T09:53:56;100373.94;;;18.27;100.00
5574;BME280;2563;52.242;7.956;2022-10-16T09:56:28;100402.41;;;18.30;100.00
5574;BME280;2563;52.242;7.956;2022-10-16T09:58:56;100421.63;;;18.72;100.00
5574;BME280;2563;52.242;7.956;2022-10-16T10:01:28;100457.06;;;17.85;100.00
5574;BME280;2563;52.242;7.956;2022-10-16T10:03:56;100483.41;;;17.79;100.00
5574;BME280;2563;52.242;7.956;2022-10-16T10:06:33;100519.47;;;17.38;100.00
5574;BME280;2563;52.242;7.956;2022-10-16T10:09:06;100526.34;;;17.23;100.00
5574;BME280;2563;52.242;7.956;2022-10-16T10:11:52;100535.47;;;16.97;100.00
5574;BME280;2563;52.242;7.956;2022-10-16T10:16:50;100520.88;;;16.94;100.00
5574;BME280;2563;52.242;7.956;2022-10-16T10:19:22;100518.31;;;17.43;100.00
5574;BME280;2563;52.242;7.956;2022-10-16T10:21:48;100520.06;;;18.08;100.00
5574;BME280;2563;52.242;7.956;2022-10-16T10:24:15;100533.59;;;18.45;100.00
5574;BME280;2563;52.242;7.956;2022-10-16T10:29:29;100549.41;;;19.60;100.00
5574;BME280;2563;52.242;7.956;2022-10-16T10:32:18;100589.22;;;19.20;100.00
5574;BME280;2563;52.242;7.956;2022-10-16T10:37:50;100643.50;;;18.37;100.00
5574;BME280;2563;52.242;7.956;2022-10-16T10:40:40;100645.03;;;18.87;100.00
5574;BME280;2563;52.242;7.956;2022-10-16T10:45:44;100656.41;;;19.90;100.00
5574;BME280;2563;52.242;7.956;2022-10-16T10:51:02;100674.28;;;20.25;100.00
5574;BME280;2563;52.242;7.956;2022-10-16T10:53:51;100704.50;;;19.57;100.00
5574;BME280;2563;52.242;7.956;2022-10-16T11:05:20;100719.81;;;19.03;100.00
5574;BME280;2563;52.242;7.956;2022-10-16T11:08:22;100714.00;;;19.58;100.00
5574;BME280;2563;52.242;7.956;2022-10-16T11:13:39;100722.00;;;19.41;100.00
5574;BME280;2563;52.242;7.956;2022-10-16T11:16:18;100721.81;;;19.88;100.00
5574;BME280;2563;52.242;7.956;2022-10-16T11:21:41;100733.09;;;20.17;100.00
5574;BME280;2563;52.242;7.956;2022-10-16T11:24:41;100744.31;;;19.61;100.00
5574;BME280;2563;52.242;7.956;2022-10-16T11:27:15;100747.44;;;20.39;100.00
5574;BME280;2563;52.242;7.956;2022-10-16T11:29:58;100750.22;;;20.79;100.00
5574;BME280;2563;52.242;7.956;2022-10-16T11:32:32;100766.69;;;20.52;100.00
5574;BME280;2563;52.242;7.956;2022-10-16T11:35:06;100759.44;;;20.85;100.00
5574;BME280;2563;52.242;7.956;2022-10-16T11:37:38;100761.38;;;20.95;100.00
5574;BME280;2563;52.242;7.956;2022-10-16T11:40:28;100749.28;;;20.51;100.00
5574;BME280;2563;52.242;7.956;2022-10-16T11:43:12;100745.41;;;20.58;100.00
5574;BME280;2563;52.242;7.956;2022-10-16T11:45:43;100755.97;;;20.14;100.00
5574;BME280;2563;52.242;7.956;2022-10-16T11:50:57;100741.88;;;20.02;100.00
5574;BME280;2563;52.242;7.956;2022-10-16T11:56:13;100705.81;;;20.36;100.00
5574;BME280;2563;52.242;7.956;2022-10-16T12:07:07;100673.47;;;19.81;100.00
5574;BME280;2563;52.242;7.956;2022-10-16T12:09:32;100670.66;;;19.98;100.00
5574;BME280;2563;52.242;7.956;2022-10-16T12:12:00;100668.22;;;20.10;100.00
5574;BME280;2563;52.242;7.956;2022-10-16T12:16:57;100672.88;;;19.62;100.00
5574;BME280;2563;52.242;7.956;2022-10-16T12:19:27;100680.09;;;19.87;100.00
5574;BME280;2563;52.242;7.956;2022-10-16T12:21:56;100689.06;;;19.83;100.00
5574;BME280;2563;52.242;7.956;2022-10-16T12:26:53;100671.13;;;20.19;100.00
5574;BME280;2563;52.242;7.956;2022-10-16T12:29:38;100669.22;;;20.36;100.00
5574;BME280;2563;52.242;7.956;2022-10-16T12:32:20;100671.63;;;20.39;100.00
5574;BME280;2563;52.242;7.956;2022-10-16T12:34:47;100675.38;;;20.35;100.00
5574;BME280;2563;52.242;7.956;2022-10-16T12:37:20;100670.34;;;20.32;100.00
5574;BME280;2563;52.242;7.956;2022-10-16T12:39:47;100671.47;;;20.28;100.00
5574;BME280;2563;52.242;7.956;2022-10-16T12:44:54;100668.75;;;20.98;100.00
5574;BME280;2563;52.242;7.956;2022-10-16T12:49:57;100691.94;;;21.17;100.00
5574;BME280;2563;52.242;7.956;2022-10-16T12:52:37;100694.50;;;21.44;100.00
5574;BME280;2563;52.242;7.956;2022-10-16T12:55:05;100712.19;;;21.40;100.00
5574;BME280;2563;52.242;7.956;2022-10-16T12:58:00;100718.59;;;21.09;100.00
5574;BME280;2563;52.242;7.956;2022-10-16T13:06:01;100718.09;;;20.90;100.00
5574;BME280;2563;52.242;7.956;2022-10-16T13:17:12;100737.47;;;20.87;100.00
5574;BME280;2563;52.242;7.956;2022-10-16T13:19:58;100731.44;;;20.99;100.00
5574;BME280;2563;52.242;7.956;2022-10-16T13:22:35;100741.19;;;20.97;100.00
5574;BME280;2563;52.242;7.956;2022-10-16T13:30:28;100736.91;;;21.09;100.00
5574;BME280;2563;52.242;7.956;2022-10-16T13:33:10;100745.41;;;21.13;100.00
5574;BME280;2563;52.242;7.956;2022-10-16T13:35:47;100749.03;;;20.97;100.00
5574;BME280;2563;52.242;7.956;2022-10-16T13:38:14;100747.56;;;20.93;100.00
5574;BME280;2563;52.242;7.956;2022-10-16T13:43:19;100767.13;;;20.73;100.00
5574;BME280;2563;52.242;7.956;2022-10-16T13:45:58;100779.75;;;20.52;100.00
5574;BME280;2563;52.242;7.956;2022-10-16T13:48:24;100780.03;;;20.76;100.00
5574;BME280;2563;52.242;7.956;2022-10-16T13:51:19;100772.09;;;20.35;100.00
5574;BME280;2563;52.242;7.956;2022-10-16T13:53:45;100771.19;;;20.36;100.00
5574;BME280;2563;52.242;7.956;2022-10-16T13:56:14;100786.28;;;19.88;100.00
5574;BME280;2563;52.242;7.956;2022-10-16T13:58:40;100779.22;;;19.44;100.00
5574;BME280;2563;52.242;7.956;2022-10-16T14:03:40;100769.50;;;19.31;100.00
5574;BME280;2563;52.242;7.956;2022-10-16T14:06:12;100767.91;;;19.29;100.00
5574;BME280;2563;52.242;7.956;2022-10-16T14:08:43;100759.47;;;19.40;100.00
5574;BME280;2563;52.242;7.956;2022-10-16T14:11:11;100759.66;;;19.51;100.00
5574;BME280;2563;52.242;7.956;2022-10-16T14:13:39;100760.28;;;19.10;100.00
5574;BME280;2563;52.242;7.956;2022-10-16T14:16:10;100761.72;;;19.00;100.00
5574;BME280;2563;52.242;7.956;2022-10-16T14:18:40;100755.06;;;19.10;100.00
5574;BME280;2563;52.242;7.956;2022-10-16T14:21:07;100751.19;;;19.17;100.00
5574;BME280;2563;52.242;7.956;2022-10-16T14:23:36;100745.13;;;19.01;100.00
5574;BME280;2563;52.242;7.956;2022-10-16T14:28:33;100741.97;;;18.96;100.00
5574;BME280;2563;52.242;7.956;2022-10-16T14:31:01;100743.72;;;18.95;100.00
5574;BME280;2563;52.242;7.956;2022-10-16T14:36:14;100735.22;;;19.07;100.00
5574;BME280;2563;52.242;7.956;2022-10-16T14:39:05;100739.78;;;19.04;100.00
5574;BME280;2563;52.242;7.956;2022-10-16T14:41:35;100736.28;;;19.19;100.00
5574;BME280;2563;52.242;7.956;2022-10-16T14:44:06;100734.81;;;19.29;100.00
5574;BME280;2563;52.242;7.956;2022-10-16T14:46:34;100742.00;;;19.26;100.00
5574;BME280;2563;52.242;7.956;2022-10-16T14:49:03;100743.13;;;19.06;100.00
5574;BME280;2563;52.242;7.956;2022-10-16T14:51:30;100743.66;;;18.97;100.00
5574;BME280;2563;52.242;7.956;2022-10-16T14:53:55;100746.78;;;18.87;100.00
5574;BME280;2563;52.242;7.956;2022-10-16T14:56:25;100746.66;;;18.41;100.00
5574;BME280;2563;52.242;7.956;2022-10-16T14:58:53;100731.81;;;18.26;100.00
5574;BME280;2563;52.242;7.956;2022-10-16T15:01:19;100737.22;;;18.23;100.00
5574;BME280;2563;52.242;7.956;2022-10-16T15:03:44;100739.53;;;18.12;100.00
5574;BME280;2563;52.242;7.956;2022-10-16T15:06:15;100741.13;;;17.81;100.00
5574;BME280;2563;52.242;7.956;2022-10-16T15:08:41;100741.19;;;17.62;100.00
5574;BME280;2563;52.242;7.956;2022-10-16T15:11:12;100724.81;;;17.60;100.00
5574;BME280;2563;52.242;7.956;2022-10-16T15:13:39;100703.97;;;17.77;100.00